createdAt,value
2023-04-30T00:01:42.935Z,102218.72
2023-04-30T00:04:10.599Z,102222.19
2023-04-30T00:06:39.690Z,102221.72
2023-04-30T00:09:07.404Z,102227.50
2023-04-30T00:11:35.029Z,102240.47
2023-04-30T00:14:02.610Z,102243.69
2023-04-30T00:16:30.296Z,102246.81
2023-04-30T00:18:58.060Z,102231.56
2023-04-30T00:21:26.196Z,102233.00
2023-04-30T00:23:55.309Z,102231.75
2023-04-30T00:26:22.922Z,102243.53
2023-04-30T00:28:50.709Z,102244.94
2023-04-30T00:31:18.492Z,102259.31
2023-04-30T00:33:46.089Z,102254.28
2023-04-30T00:36:13.912Z,102251.16
2023-04-30T00:38:41.713Z,102251.28
2023-04-30T00:41:11.143Z,102256.88
2023-04-30T00:43:39.132Z,102257.34
2023-04-30T00:46:06.895Z,102260.34
2023-04-30T00:48:34.710Z,102267.63
2023-04-30T00:51:03.968Z,102259.94
2023-04-30T00:53:32.333Z,102272.41
2023-04-30T00:56:00.358Z,102262.81
2023-04-30T00:58:29.298Z,102258.38
2023-04-30T01:00:57.379Z,102269.78
2023-04-30T01:03:25.192Z,102261.88
2023-04-30T01:05:53.785Z,102276.84
2023-04-30T01:08:22.113Z,102274.22
2023-04-30T01:10:54.817Z,102272.41
2023-04-30T01:13:30.545Z,102273.13
2023-04-30T01:16:08.155Z,102269.66
2023-04-30T01:18:43.043Z,102264.38
2023-04-30T01:21:11.020Z,102268.47
2023-04-30T01:23:55.783Z,102264.78
2023-04-30T01:26:40.203Z,102261.06
2023-04-30T01:29:11.251Z,102262.28
2023-04-30T01:31:38.975Z,102269.84
2023-04-30T01:34:06.829Z,102266.97
2023-04-30T01:36:46.799Z,102265.28
2023-04-30T01:39:27.927Z,102271.63
2023-04-30T01:42:03.874Z,102266.94
2023-04-30T01:44:50.374Z,102270.03
2023-04-30T01:47:29.000Z,102275.16
2023-04-30T01:50:04.330Z,102280.16
2023-04-30T01:52:40.644Z,102274.72
2023-04-30T01:55:12.669Z,102278.66
2023-04-30T01:57:44.513Z,102282.66
2023-04-30T02:00:15.297Z,102288.38
2023-04-30T02:02:43.086Z,102287.97
2023-04-30T02:05:10.905Z,102296.94
2023-04-30T02:07:43.893Z,102298.22
2023-04-30T02:10:13.009Z,102291.50
2023-04-30T02:12:41.177Z,102297.09
2023-04-30T02:15:10.213Z,102301.75
2023-04-30T02:17:39.242Z,102301.00
2023-04-30T02:20:09.001Z,102306.59
2023-04-30T02:22:37.036Z,102313.13
2023-04-30T02:25:04.948Z,102296.81
2023-04-30T02:27:34.115Z,102307.56
2023-04-30T02:30:02.536Z,102305.28
2023-04-30T02:32:30.486Z,102309.69
2023-04-30T02:34:59.732Z,102312.19
2023-04-30T02:37:27.463Z,102311.16
2023-04-30T02:39:55.280Z,102312.63
2023-04-30T02:42:23.087Z,102310.50
2023-04-30T02:44:50.875Z,102306.72
2023-04-30T02:47:18.574Z,102315.03
2023-04-30T02:49:46.164Z,102313.13
2023-04-30T02:52:15.196Z,102309.41
2023-04-30T02:54:42.820Z,102315.44
2023-04-30T02:57:10.559Z,102314.47
2023-04-30T02:59:38.778Z,102311.63
2023-04-30T03:02:06.402Z,102314.16
2023-04-30T03:04:34.054Z,102316.81
2023-04-30T03:07:01.869Z,102320.38
2023-04-30T03:09:31.489Z,102302.16
2023-04-30T03:11:59.125Z,102313.53
2023-04-30T03:14:26.777Z,102309.97
2023-04-30T03:16:54.717Z,102316.91
2023-04-30T03:19:25.176Z,102315.31
2023-04-30T03:21:53.078Z,102316.16
2023-04-30T03:24:20.713Z,102324.78
2023-04-30T03:26:50.040Z,102329.00
2023-04-30T03:29:17.800Z,102327.94
2023-04-30T03:31:45.504Z,102328.69
2023-04-30T03:34:13.143Z,102333.63
2023-04-30T03:36:40.746Z,102334.97
2023-04-30T03:39:09.861Z,102338.25
2023-04-30T03:41:37.732Z,102338.78
2023-04-30T03:44:06.971Z,102340.13
2023-04-30T03:46:34.626Z,102338.13
2023-04-30T03:49:02.339Z,102346.41
2023-04-30T03:51:30.072Z,102343.53
2023-04-30T03:53:57.692Z,102339.38
2023-04-30T03:56:26.097Z,102351.09
2023-04-30T03:58:53.732Z,102351.38
2023-04-30T04:01:22.744Z,102357.63
2023-04-30T04:03:50.524Z,102345.56
2023-04-30T04:06:18.289Z,102352.06
2023-04-30T04:08:46.280Z,102346.09
2023-04-30T04:11:13.922Z,102341.22
2023-04-30T04:13:41.609Z,102341.97
2023-04-30T04:16:09.650Z,102342.00
2023-04-30T04:18:38.636Z,102346.44
2023-04-30T04:21:06.722Z,102346.59
2023-04-30T04:23:34.911Z,102351.63
2023-04-30T04:26:03.154Z,102348.91
2023-04-30T04:28:30.731Z,102347.69
2023-04-30T04:30:58.500Z,102349.13
2023-04-30T04:33:26.104Z,102350.41
2023-04-30T04:35:55.206Z,102349.63
2023-04-30T04:38:22.804Z,102358.31
2023-04-30T04:40:54.112Z,102360.09
2023-04-30T04:43:21.752Z,102355.59
2023-04-30T04:45:49.660Z,102365.75
2023-04-30T04:48:17.293Z,102364.66
2023-04-30T04:50:44.965Z,102367.16
2023-04-30T04:53:14.064Z,102360.25
2023-04-30T04:55:41.673Z,102354.69
2023-04-30T04:58:09.652Z,102361.75
2023-04-30T05:00:37.492Z,102343.41
2023-04-30T05:03:05.395Z,102353.97
2023-04-30T05:05:33.143Z,102354.97
2023-04-30T05:08:01.072Z,102361.94
2023-04-30T05:10:30.156Z,102362.00
2023-04-30T05:12:57.753Z,102357.03
2023-04-30T05:15:25.967Z,102363.44
2023-04-30T05:17:53.687Z,102366.94
2023-04-30T05:20:21.323Z,102360.69
2023-04-30T05:22:48.933Z,102361.97
2023-04-30T05:25:16.658Z,102366.97
2023-04-30T05:27:45.608Z,102366.06
2023-04-30T05:30:15.628Z,102376.06
2023-04-30T05:32:43.543Z,102373.19
2023-04-30T05:35:11.258Z,102374.19
2023-04-30T05:37:39.219Z,102369.31
2023-04-30T05:40:08.247Z,102368.84
2023-04-30T05:42:36.445Z,102373.34
2023-04-30T05:45:06.352Z,102381.78
2023-04-30T05:47:34.618Z,102380.03
2023-04-30T05:50:02.384Z,102381.94
2023-04-30T05:52:30.075Z,102387.66
2023-04-30T05:54:58.576Z,102380.69
2023-04-30T05:57:26.376Z,102388.03
2023-04-30T05:59:55.032Z,102395.41
2023-04-30T06:02:24.373Z,102395.41
2023-04-30T06:04:52.327Z,102394.28
2023-04-30T06:07:19.900Z,102397.78
2023-04-30T06:09:47.532Z,102394.34
2023-04-30T06:12:15.306Z,102386.94
2023-04-30T06:14:45.391Z,102388.13
2023-04-30T06:17:13.342Z,102395.63
2023-04-30T06:19:42.356Z,102404.59
2023-04-30T06:22:10.020Z,102408.03
2023-04-30T06:24:37.625Z,102406.88
2023-04-30T06:27:05.463Z,102404.81
2023-04-30T06:29:33.023Z,102403.66
2023-04-30T06:32:00.654Z,102401.94
2023-04-30T06:34:28.365Z,102402.44
2023-04-30T06:36:57.665Z,102408.09
2023-04-30T06:39:25.436Z,102406.50
2023-04-30T06:41:53.091Z,102415.59
2023-04-30T06:44:21.275Z,102409.56
2023-04-30T06:46:49.214Z,102410.06
2023-04-30T06:49:17.307Z,102412.97
2023-04-30T06:51:44.911Z,102423.09
2023-04-30T06:54:14.411Z,102420.41
2023-04-30T06:56:42.394Z,102421.34
2023-04-30T06:59:10.174Z,102420.59
2023-04-30T07:01:37.809Z,102419.53
2023-04-30T07:04:05.749Z,102413.28
2023-04-30T07:06:33.850Z,102414.84
2023-04-30T07:09:01.499Z,102409.44
2023-04-30T07:11:30.628Z,102415.13
2023-04-30T07:13:58.168Z,102414.34
2023-04-30T07:16:28.048Z,102421.69
2023-04-30T07:18:56.129Z,102423.88
2023-04-30T07:21:25.470Z,102428.31
2023-04-30T07:23:53.102Z,102429.72
2023-04-30T07:26:20.834Z,102440.56
2023-04-30T07:28:49.974Z,102432.88
2023-04-30T07:31:17.927Z,102442.25
2023-04-30T07:33:45.785Z,102445.34
2023-04-30T07:36:13.424Z,102445.41
2023-04-30T07:38:41.054Z,102448.75
2023-04-30T07:41:09.499Z,102451.47
2023-04-30T07:43:37.375Z,102449.09
2023-04-30T07:46:06.582Z,102455.88
2023-04-30T07:48:34.171Z,102454.44
2023-04-30T07:51:01.853Z,102457.50
2023-04-30T07:53:29.647Z,102450.75
2023-04-30T07:55:57.317Z,102455.47
2023-04-30T07:58:24.981Z,102454.63
2023-04-30T08:00:53.115Z,102453.94
2023-04-30T08:03:22.598Z,102451.94
2023-04-30T08:05:50.359Z,102446.41
2023-04-30T08:08:17.964Z,102450.75
2023-04-30T08:10:45.990Z,102451.97
2023-04-30T08:13:13.665Z,102448.94
2023-04-30T08:15:42.414Z,102442.06
2023-04-30T08:18:10.944Z,102444.28
2023-04-30T08:20:40.523Z,102453.81
2023-04-30T08:23:08.144Z,102449.50
2023-04-30T08:25:36.935Z,102456.72
2023-04-30T08:28:04.681Z,102463.81
2023-04-30T08:30:32.259Z,102462.34
2023-04-30T08:33:00.013Z,102473.53
2023-04-30T08:35:29.711Z,102471.66
2023-04-30T08:37:58.767Z,102479.84
2023-04-30T08:40:43.725Z,102468.34
2023-04-30T08:43:12.957Z,102466.44
2023-04-30T08:45:41.610Z,102475.34
2023-04-30T08:48:14.226Z,102476.34
2023-04-30T08:50:49.852Z,102477.00
2023-04-30T08:53:20.999Z,102473.97
2023-04-30T08:55:49.214Z,102467.41
2023-04-30T08:58:17.050Z,102476.94
2023-04-30T09:00:44.779Z,102463.88
2023-04-30T09:03:12.570Z,102466.88
2023-04-30T09:05:41.723Z,102479.72
2023-04-30T09:08:10.971Z,102470.84
2023-04-30T09:10:39.028Z,102477.03
2023-04-30T09:13:08.936Z,102477.88
2023-04-30T09:15:38.677Z,102478.72
2023-04-30T09:18:11.118Z,102473.88
2023-04-30T09:20:39.399Z,102476.03
2023-04-30T09:23:08.962Z,102471.97
2023-04-30T09:25:42.502Z,102483.69
2023-04-30T09:28:11.281Z,102469.84
2023-04-30T09:30:39.620Z,102471.56
2023-04-30T09:33:09.890Z,102472.06
2023-04-30T09:35:41.462Z,102470.63
2023-04-30T09:38:25.887Z,102457.66
2023-04-30T09:40:55.032Z,102463.34
2023-04-30T09:43:22.710Z,102459.09
2023-04-30T09:45:51.605Z,102463.41
2023-04-30T09:48:22.065Z,102466.38
2023-04-30T09:50:50.393Z,102462.56
2023-04-30T09:53:18.694Z,102471.72
2023-04-30T09:55:47.913Z,102472.31
2023-04-30T09:58:18.924Z,102470.53
2023-04-30T10:00:48.571Z,102462.50
2023-04-30T10:03:17.112Z,102455.97
2023-04-30T10:05:48.050Z,102458.59
2023-04-30T10:08:20.507Z,102457.25
2023-04-30T10:10:51.995Z,102446.53
2023-04-30T10:13:22.816Z,102448.31
2023-04-30T10:15:54.259Z,102443.91
2023-04-30T10:18:27.789Z,102433.31
2023-04-30T10:20:57.278Z,102443.59
2023-04-30T10:23:25.516Z,102429.84
2023-04-30T10:25:53.391Z,102428.00
2023-04-30T10:28:22.335Z,102434.94
2023-04-30T10:30:52.175Z,102430.69
2023-04-30T10:33:26.393Z,102429.31
2023-04-30T10:35:58.558Z,102426.41
2023-04-30T10:38:29.675Z,102427.34
2023-04-30T10:40:58.408Z,102427.97
2023-04-30T10:43:27.971Z,102419.59
2023-04-30T10:45:58.217Z,102419.28
2023-04-30T10:48:27.307Z,102424.59
2023-04-30T10:50:57.251Z,102421.50
2023-04-30T10:53:26.363Z,102418.34
2023-04-30T10:55:55.723Z,102418.78
2023-04-30T10:58:31.305Z,102412.16
2023-04-30T11:01:04.196Z,102412.53
2023-04-30T11:03:32.955Z,102406.28
2023-04-30T11:06:03.757Z,102404.09
2023-04-30T11:08:35.858Z,102396.31
2023-04-30T11:11:05.131Z,102389.06
2023-04-30T11:13:46.400Z,102389.44
2023-04-30T11:16:14.464Z,102387.22
2023-04-30T11:18:45.732Z,102393.97
2023-04-30T11:21:13.987Z,102386.13
2023-04-30T11:23:43.208Z,102382.97
2023-04-30T11:26:11.297Z,102380.75
2023-04-30T11:28:39.666Z,102371.19
2023-04-30T11:31:08.721Z,102374.44
2023-04-30T11:33:36.537Z,102367.94
2023-04-30T11:36:04.545Z,102371.47
2023-04-30T11:38:36.195Z,102368.84
2023-04-30T11:41:05.172Z,102360.41
2023-04-30T11:43:33.884Z,102364.66
2023-04-30T11:46:06.903Z,102363.06
2023-04-30T11:48:37.798Z,102360.75
2023-04-30T11:51:07.296Z,102352.19
2023-04-30T11:53:34.916Z,102362.94
2023-04-30T11:56:06.374Z,102364.94
2023-04-30T11:58:38.077Z,102368.09
2023-04-30T12:01:06.400Z,102363.63
2023-04-30T12:03:34.094Z,102363.75
2023-04-30T12:06:03.335Z,102360.81
2023-04-30T12:08:31.105Z,102354.19
2023-04-30T12:10:58.747Z,102353.31
2023-04-30T12:13:26.331Z,102354.69
2023-04-30T12:16:00.595Z,102350.47
2023-04-30T12:18:28.266Z,102358.56
2023-04-30T12:20:56.535Z,102356.97
2023-04-30T12:23:25.887Z,102347.88
2023-04-30T12:25:53.562Z,102350.03
2023-04-30T12:28:21.180Z,102346.38
2023-04-30T12:30:48.814Z,102349.59
2023-04-30T12:33:18.916Z,102344.53
2023-04-30T12:35:46.770Z,102339.06
2023-04-30T12:38:17.926Z,102344.09
2023-04-30T12:40:49.750Z,102338.09
2023-04-30T12:43:18.577Z,102340.53
2023-04-30T12:45:48.107Z,102345.78
2023-04-30T12:48:17.139Z,102348.19
2023-04-30T12:50:49.227Z,102339.16
2023-04-30T12:53:16.882Z,102337.50
2023-04-30T12:55:44.456Z,102338.75
2023-04-30T12:58:16.566Z,102335.84
2023-04-30T13:00:49.063Z,102332.94
2023-04-30T13:03:18.580Z,102331.75
2023-04-30T13:05:50.752Z,102327.47
2023-04-30T13:08:19.139Z,102324.53
2023-04-30T13:10:47.828Z,102323.41
2023-04-30T13:13:18.594Z,102329.81
2023-04-30T13:15:46.565Z,102337.25
2023-04-30T13:18:15.792Z,102331.38
2023-04-30T13:20:44.676Z,102325.50
2023-04-30T13:23:12.871Z,102337.94
2023-04-30T13:25:41.735Z,102330.81
2023-04-30T13:28:09.407Z,102326.13
2023-04-30T13:30:38.484Z,102320.78
2023-04-30T13:33:06.147Z,102321.09
2023-04-30T13:35:33.782Z,102320.09
2023-04-30T13:38:01.377Z,102310.88
2023-04-30T13:40:28.974Z,102314.38
2023-04-30T13:42:56.526Z,102308.81
2023-04-30T13:45:24.134Z,102304.56
2023-04-30T13:47:53.300Z,102298.25
2023-04-30T13:50:21.065Z,102299.97
2023-04-30T13:52:48.630Z,102298.41
2023-04-30T13:55:16.369Z,102292.63
2023-04-30T13:57:44.000Z,102294.13
2023-04-30T14:00:12.697Z,102294.69
2023-04-30T14:02:40.524Z,102295.22
2023-04-30T14:05:10.740Z,102289.22
2023-04-30T14:07:38.424Z,102292.66
2023-04-30T14:10:07.180Z,102288.47
2023-04-30T14:12:34.774Z,102296.47
2023-04-30T14:15:03.346Z,102295.88
2023-04-30T14:17:31.547Z,102295.88
2023-04-30T14:19:59.180Z,102298.81
2023-04-30T14:22:28.301Z,102290.16
2023-04-30T14:24:55.944Z,102289.84
2023-04-30T14:27:23.528Z,102293.03
2023-04-30T14:29:51.453Z,102284.75
2023-04-30T14:32:19.259Z,102287.00
2023-04-30T14:34:47.224Z,102284.97
2023-04-30T14:37:15.564Z,102290.19
2023-04-30T14:39:44.783Z,102290.09
2023-04-30T14:42:12.476Z,102280.66
2023-04-30T14:44:41.285Z,102295.19
2023-04-30T14:47:08.980Z,102290.25
2023-04-30T14:49:36.625Z,102279.44
2023-04-30T14:52:04.259Z,102292.66
2023-04-30T14:54:31.833Z,102285.00
2023-04-30T14:57:00.848Z,102278.25
2023-04-30T14:59:28.467Z,102276.31
2023-04-30T15:01:56.097Z,102275.72
2023-04-30T15:04:23.741Z,102274.66
2023-04-30T15:06:51.405Z,102281.56
2023-04-30T15:09:19.176Z,102274.09
2023-04-30T15:11:46.768Z,102272.56
2023-04-30T15:14:16.974Z,102277.34
2023-04-30T15:16:45.199Z,102281.88
2023-04-30T15:19:12.868Z,102277.53
2023-04-30T15:21:40.641Z,102271.25
2023-04-30T15:24:08.950Z,102263.78
2023-04-30T15:26:36.610Z,102265.94
2023-04-30T15:29:04.358Z,102265.22
2023-04-30T15:31:33.302Z,102256.44
2023-04-30T15:34:02.396Z,102258.41
2023-04-30T15:36:31.856Z,102251.50
2023-04-30T15:38:59.555Z,102250.63
2023-04-30T15:41:27.185Z,102238.28
2023-04-30T15:43:54.806Z,102241.28
2023-04-30T15:46:22.748Z,102247.03
2023-04-30T15:48:51.825Z,102239.94
2023-04-30T15:51:19.418Z,102239.53
2023-04-30T15:53:46.997Z,102229.34
2023-04-30T15:56:14.724Z,102227.94
2023-04-30T15:58:42.264Z,102226.88
2023-04-30T16:01:09.956Z,102224.34
2023-04-30T16:03:38.064Z,102223.91
2023-04-30T16:06:07.606Z,102227.47
2023-04-30T16:08:35.302Z,102227.59
2023-04-30T16:11:03.757Z,102217.66
2023-04-30T16:13:31.421Z,102216.41
2023-04-30T16:15:59.076Z,102218.22
2023-04-30T16:18:26.742Z,102208.44
2023-04-30T16:20:54.347Z,102217.22
2023-04-30T16:23:23.508Z,102210.00
2023-04-30T16:25:51.617Z,102218.31
2023-04-30T16:28:19.192Z,102215.38
2023-04-30T16:30:46.853Z,102220.41
2023-04-30T16:33:14.476Z,102205.53
2023-04-30T16:35:42.247Z,102210.91
2023-04-30T16:38:09.835Z,102208.22
2023-04-30T16:40:38.917Z,102205.56
2023-04-30T16:43:07.901Z,102199.81
2023-04-30T16:45:35.667Z,102201.88
2023-04-30T16:48:03.327Z,102202.22
2023-04-30T16:50:31.768Z,102213.72
2023-04-30T16:52:59.695Z,102203.28
2023-04-30T16:55:27.518Z,102199.66
2023-04-30T16:57:56.438Z,102199.59
2023-04-30T17:00:24.076Z,102202.25
2023-04-30T17:02:53.122Z,102199.47
2023-04-30T17:05:21.486Z,102192.38
2023-04-30T17:07:49.241Z,102188.63
2023-04-30T17:10:18.325Z,102201.44
2023-04-30T17:12:46.918Z,102201.56
2023-04-30T17:15:15.949Z,102194.06
2023-04-30T17:17:43.602Z,102196.03
2023-04-30T17:20:12.380Z,102198.63
2023-04-30T17:22:40.460Z,102198.91
2023-04-30T17:25:09.099Z,102195.78
2023-04-30T17:27:37.446Z,102190.84
2023-04-30T17:30:06.013Z,102193.94
2023-04-30T17:32:34.994Z,102183.56
2023-04-30T17:35:03.157Z,102181.47
2023-04-30T17:37:30.755Z,102178.13
2023-04-30T17:39:58.611Z,102176.03
2023-04-30T17:42:26.674Z,102184.63
2023-04-30T17:44:54.269Z,102177.97
2023-04-30T17:47:22.975Z,102175.81
2023-04-30T17:49:52.077Z,102167.50
2023-04-30T17:52:19.697Z,102168.53
2023-04-30T17:54:47.292Z,102165.72
2023-04-30T17:57:14.883Z,102169.34
2023-04-30T17:59:42.554Z,102174.56
2023-04-30T18:02:10.211Z,102169.19
2023-04-30T18:04:37.857Z,102160.53
2023-04-30T18:07:08.129Z,102162.22
2023-04-30T18:09:36.135Z,102163.41
2023-04-30T18:12:03.748Z,102162.22
2023-04-30T18:14:32.055Z,102165.38
2023-04-30T18:16:59.694Z,102174.91
2023-04-30T18:19:27.588Z,102183.06
2023-04-30T18:21:56.714Z,102179.34
2023-04-30T18:24:27.763Z,102173.81
2023-04-30T18:26:55.821Z,102175.97
2023-04-30T18:29:24.608Z,102181.44
2023-04-30T18:31:52.303Z,102183.94
2023-04-30T18:34:19.969Z,102179.88
2023-04-30T18:36:47.591Z,102181.00
2023-04-30T18:39:15.252Z,102188.13
2023-04-30T18:41:44.655Z,102182.78
2023-04-30T18:44:13.470Z,102190.25
2023-04-30T18:46:42.608Z,102191.69
2023-04-30T18:49:10.179Z,102185.84
2023-04-30T18:51:37.789Z,102185.63
2023-04-30T18:54:05.577Z,102172.22
2023-04-30T18:56:33.163Z,102171.88
2023-04-30T18:59:02.548Z,102173.31
2023-04-30T19:01:31.019Z,102177.44
2023-04-30T19:03:58.707Z,102175.56
2023-04-30T19:06:26.965Z,102178.53
2023-04-30T19:08:54.961Z,102177.69
2023-04-30T19:11:22.661Z,102181.94
2023-04-30T19:13:50.223Z,102186.06
2023-04-30T19:16:19.160Z,102193.38
2023-04-30T19:18:46.809Z,102189.53
2023-04-30T19:21:14.842Z,102190.66
2023-04-30T19:23:42.528Z,102189.13
2023-04-30T19:26:10.189Z,102200.06
2023-04-30T19:28:37.775Z,102198.72
2023-04-30T19:31:06.018Z,102199.47
2023-04-30T19:33:39.100Z,102194.09
2023-04-30T19:36:07.261Z,102192.88
2023-04-30T19:38:34.892Z,102194.69
2023-04-30T19:41:02.503Z,102195.16
2023-04-30T19:43:30.129Z,102193.47
2023-04-30T19:45:59.714Z,102194.63
2023-04-30T19:48:27.358Z,102195.88
2023-04-30T19:50:58.031Z,102185.84
2023-04-30T19:53:26.100Z,102197.09
2023-04-30T19:55:53.810Z,102180.28
2023-04-30T19:58:21.862Z,102184.09
2023-04-30T20:00:49.642Z,102173.75
2023-04-30T20:03:20.496Z,102179.38
2023-04-30T20:05:48.207Z,102185.81
2023-04-30T20:08:17.431Z,102181.94
2023-04-30T20:10:46.897Z,102177.22
2023-04-30T20:13:15.812Z,102174.19
2023-04-30T20:15:43.499Z,102175.63
2023-04-30T20:18:12.426Z,102178.88
2023-04-30T20:20:40.051Z,102169.63
2023-04-30T20:23:14.977Z,102179.16
2023-04-30T20:25:45.984Z,102178.22
2023-04-30T20:28:14.485Z,102184.63
2023-04-30T20:30:43.125Z,102187.19
2023-04-30T20:33:11.002Z,102178.28
2023-04-30T20:35:40.475Z,102181.97
2023-04-30T20:38:08.284Z,102178.88
2023-04-30T20:40:39.911Z,102179.59
2023-04-30T20:43:10.159Z,102185.31
2023-04-30T20:45:38.250Z,102184.09
2023-04-30T20:48:06.679Z,102184.81
2023-04-30T20:50:34.395Z,102179.91
2023-04-30T20:53:02.082Z,102187.31
2023-04-30T20:55:29.944Z,102181.59
2023-04-30T20:57:57.612Z,102176.00
2023-04-30T21:00:27.814Z,102178.13
2023-04-30T21:02:55.672Z,102172.56
2023-04-30T21:05:23.494Z,102173.94
2023-04-30T21:07:51.338Z,102166.56
2023-04-30T21:10:19.074Z,102166.94
2023-04-30T21:12:47.048Z,102170.03
2023-04-30T21:15:14.731Z,102171.28
2023-04-30T21:17:43.753Z,102163.75
2023-04-30T21:20:12.922Z,102161.66
2023-04-30T21:22:41.041Z,102158.72
2023-04-30T21:25:10.897Z,102159.94
2023-04-30T21:27:38.778Z,102155.19
2023-04-30T21:30:07.924Z,102156.59
2023-04-30T21:32:35.692Z,102164.94
2023-04-30T21:35:05.193Z,102165.38
2023-04-30T21:37:33.004Z,102168.28
2023-04-30T21:40:00.808Z,102154.63
2023-04-30T21:42:29.000Z,102158.66
2023-04-30T21:44:56.772Z,102155.44
2023-04-30T21:47:25.257Z,102160.28
2023-04-30T21:49:53.020Z,102156.34
2023-04-30T21:52:22.214Z,102148.81
2023-04-30T21:54:50.358Z,102149.38
2023-04-30T21:57:17.934Z,102149.75
2023-04-30T21:59:46.257Z,102137.75
2023-04-30T22:04:48.078Z,102131.31
2023-04-30T22:07:15.820Z,102120.16
2023-04-30T22:09:45.385Z,102130.03
2023-04-30T22:12:13.130Z,102124.31
2023-04-30T22:14:40.780Z,102120.38
2023-04-30T22:17:08.425Z,102118.97
2023-04-30T22:19:36.154Z,102109.56
2023-04-30T22:22:03.916Z,102115.13
2023-04-30T22:24:31.811Z,102102.16
2023-04-30T22:27:01.646Z,102097.13
2023-04-30T22:29:29.229Z,102098.13
2023-04-30T22:31:57.517Z,102100.78
2023-04-30T22:34:25.469Z,102095.47
2023-04-30T22:36:53.428Z,102105.22
2023-04-30T22:39:21.103Z,102096.56
2023-04-30T22:41:50.562Z,102103.69
2023-04-30T22:44:20.357Z,102094.16
2023-04-30T22:46:48.183Z,102097.94
2023-04-30T22:49:27.531Z,102095.69
2023-04-30T22:51:58.197Z,102094.25
2023-04-30T22:54:25.883Z,102087.56
2023-04-30T22:56:53.698Z,102088.66
2023-04-30T22:59:22.705Z,102095.19
2023-04-30T23:01:50.357Z,102088.47
2023-04-30T23:04:18.070Z,102086.94
2023-04-30T23:06:46.450Z,102085.50
2023-04-30T23:09:15.886Z,102083.97
2023-04-30T23:11:44.735Z,102078.22
2023-04-30T23:14:12.438Z,102077.41
2023-04-30T23:16:42.669Z,102073.19
2023-04-30T23:19:10.845Z,102070.66
2023-04-30T23:21:38.610Z,102067.34
2023-04-30T23:24:06.406Z,102066.63
2023-04-30T23:26:34.103Z,102065.91
2023-04-30T23:29:02.752Z,102066.31
2023-04-30T23:31:30.456Z,102056.09
2023-04-30T23:33:59.514Z,102061.38
2023-04-30T23:36:27.150Z,102056.50
2023-04-30T23:38:54.864Z,102057.47
2023-04-30T23:41:22.513Z,102053.97
2023-04-30T23:43:51.031Z,102049.53
2023-04-30T23:46:19.141Z,102043.53
2023-04-30T23:48:46.818Z,102042.69
2023-04-30T23:51:15.791Z,102042.09
2023-04-30T23:53:43.414Z,102035.16
2023-04-30T23:56:11.043Z,102033.59
2023-04-30T23:58:38.703Z,102033.84
